sensor_id;sensor_type;location;lat;lon;timestamp;P1;durP1;ratioP1;P2;durP2;ratioP2
5285;SDS011;2665;53.112;7.358;2023-06-26T00:01:57;7.13;;;5.30;;
5285;SDS011;2665;53.112;7.358;2023-06-26T00:04:23;7.43;;;6.60;;
5285;SDS011;2665;53.112;7.358;2023-06-26T00:06:49;9.07;;;6.50;;
5285;SDS011;2665;53.112;7.358;2023-06-26T00:09:14;5.40;;;4.87;;
5285;SDS011;2665;53.112;7.358;2023-06-26T00:11:40;7.70;;;6.90;;
5285;SDS011;2665;53.112;7.358;2023-06-26T00:14:05;7.00;;;6.03;;
5285;SDS011;2665;53.112;7.358;2023-06-26T00:16:31;8.93;;;6.20;;
5285;SDS011;2665;53.112;7.358;2023-06-26T00:18:57;10.20;;;6.27;;
5285;SDS011;2665;53.112;7.358;2023-06-26T00:21:24;10.00;;;6.13;;
5285;SDS011;2665;53.112;7.358;2023-06-26T00:23:50;6.70;;;6.00;;
5285;SDS011;2665;53.112;7.358;2023-06-26T00:26:16;7.00;;;6.03;;
5285;SDS011;2665;53.112;7.358;2023-06-26T00:28:41;5.77;;;5.27;;
5285;SDS011;2665;53.112;7.358;2023-06-26T00:31:07;7.37;;;6.10;;
5285;SDS011;2665;53.112;7.358;2023-06-26T00:33:33;9.50;;;5.80;;
5285;SDS011;2665;53.112;7.358;2023-06-26T00:35:58;6.87;;;5.93;;
5285;SDS011;2665;53.112;7.358;2023-06-26T00:38:24;6.07;;;5.47;;
5285;SDS011;2665;53.112;7.358;2023-06-26T00:40:50;8.00;;;5.87;;
5285;SDS011;2665;53.112;7.358;2023-06-26T00:43:15;6.90;;;6.20;;
5285;SDS011;2665;53.112;7.358;2023-06-26T00:45:41;7.70;;;5.73;;
5285;SDS011;2665;53.112;7.358;2023-06-26T00:48:07;7.40;;;6.30;;
5285;SDS011;2665;53.112;7.358;2023-06-26T00:50:36;9.10;;;5.33;;
5285;SDS011;2665;53.112;7.358;2023-06-26T00:53:02;6.13;;;4.90;;
5285;SDS011;2665;53.112;7.358;2023-06-26T00:55:28;5.60;;;5.10;;
5285;SDS011;2665;53.112;7.358;2023-06-26T00:57:54;8.50;;;5.87;;
5285;SDS011;2665;53.112;7.358;2023-06-26T01:00:21;10.00;;;6.17;;
5285;SDS011;2665;53.112;7.358;2023-06-26T01:02:46;6.17;;;5.57;;
5285;SDS011;2665;53.112;7.358;2023-06-26T01:05:12;5.37;;;4.60;;
5285;SDS011;2665;53.112;7.358;2023-06-26T01:07:46;7.33;;;5.53;;
5285;SDS011;2665;53.112;7.358;2023-06-26T01:10:13;8.37;;;5.57;;
5285;SDS011;2665;53.112;7.358;2023-06-26T01:12:38;9.50;;;6.70;;
5285;SDS011;2665;53.112;7.358;2023-06-26T01:15:04;6.10;;;5.37;;
5285;SDS011;2665;53.112;7.358;2023-06-26T01:17:30;6.90;;;6.00;;
5285;SDS011;2665;53.112;7.358;2023-06-26T01:20:00;6.17;;;5.53;;
5285;SDS011;2665;53.112;7.358;2023-06-26T01:27:42;6.60;;;5.90;;
5285;SDS011;2665;53.112;7.358;2023-06-26T01:30:11;6.30;;;5.70;;
5285;SDS011;2665;53.112;7.358;2023-06-26T01:32:37;7.93;;;5.80;;
5285;SDS011;2665;53.112;7.358;2023-06-26T01:35:05;6.23;;;5.63;;
5285;SDS011;2665;53.112;7.358;2023-06-26T01:37:33;8.70;;;4.90;;
5285;SDS011;2665;53.112;7.358;2023-06-26T01:39:59;7.20;;;5.30;;
5285;SDS011;2665;53.112;7.358;2023-06-26T01:42:24;7.47;;;5.57;;
5285;SDS011;2665;53.112;7.358;2023-06-26T01:44:50;6.10;;;5.47;;
5285;SDS011;2665;53.112;7.358;2023-06-26T01:47:19;6.93;;;5.40;;
5285;SDS011;2665;53.112;7.358;2023-06-26T01:49:56;6.03;;;5.43;;
5285;SDS011;2665;53.112;7.358;2023-06-26T01:52:41;6.57;;;5.67;;
5285;SDS011;2665;53.112;7.358;2023-06-26T01:55:37;6.67;;;5.97;;
5285;SDS011;2665;53.112;7.358;2023-06-26T01:58:10;6.93;;;6.20;;
5285;SDS011;2665;53.112;7.358;2023-06-26T02:00:38;6.50;;;5.30;;
5285;SDS011;2665;53.112;7.358;2023-06-26T02:03:04;6.40;;;5.47;;
5285;SDS011;2665;53.112;7.358;2023-06-26T02:05:31;7.10;;;6.07;;
5285;SDS011;2665;53.112;7.358;2023-06-26T02:07:57;7.83;;;5.70;;
5285;SDS011;2665;53.112;7.358;2023-06-26T02:10:23;6.73;;;5.67;;
5285;SDS011;2665;53.112;7.358;2023-06-26T02:12:48;9.40;;;6.53;;
5285;SDS011;2665;53.112;7.358;2023-06-26T02:15:14;6.73;;;5.27;;
5285;SDS011;2665;53.112;7.358;2023-06-26T02:17:40;6.77;;;5.70;;
5285;SDS011;2665;53.112;7.358;2023-06-26T02:20:05;6.00;;;5.20;;
5285;SDS011;2665;53.112;7.358;2023-06-26T02:22:33;8.73;;;5.63;;
5285;SDS011;2665;53.112;7.358;2023-06-26T02:24:58;5.53;;;4.17;;
5285;SDS011;2665;53.112;7.358;2023-06-26T02:27:24;5.87;;;5.00;;
5285;SDS011;2665;53.112;7.358;2023-06-26T02:29:50;7.73;;;5.20;;
5285;SDS011;2665;53.112;7.358;2023-06-26T02:32:15;6.87;;;5.30;;
5285;SDS011;2665;53.112;7.358;2023-06-26T02:34:41;8.60;;;5.97;;
5285;SDS011;2665;53.112;7.358;2023-06-26T02:37:07;9.20;;;5.87;;
5285;SDS011;2665;53.112;7.358;2023-06-26T02:39:33;9.23;;;6.17;;
5285;SDS011;2665;53.112;7.358;2023-06-26T02:41:59;7.27;;;6.33;;
5285;SDS011;2665;53.112;7.358;2023-06-26T02:44:25;7.47;;;5.70;;
5285;SDS011;2665;53.112;7.358;2023-06-26T02:46:50;5.87;;;5.27;;
5285;SDS011;2665;53.112;7.358;2023-06-26T02:49:16;7.07;;;5.80;;
5285;SDS011;2665;53.112;7.358;2023-06-26T02:51:42;7.17;;;5.90;;
5285;SDS011;2665;53.112;7.358;2023-06-26T02:54:07;7.90;;;6.87;;
5285;SDS011;2665;53.112;7.358;2023-06-26T02:56:33;10.03;;;6.23;;
5285;SDS011;2665;53.112;7.358;2023-06-26T02:58:59;7.20;;;6.20;;
5285;SDS011;2665;53.112;7.358;2023-06-26T03:01:24;5.77;;;5.13;;
5285;SDS011;2665;53.112;7.358;2023-06-26T03:03:50;12.03;;;6.63;;
5285;SDS011;2665;53.112;7.358;2023-06-26T03:06:16;6.30;;;5.47;;
5285;SDS011;2665;53.112;7.358;2023-06-26T03:08:42;6.47;;;5.80;;
5285;SDS011;2665;53.112;7.358;2023-06-26T03:11:07;15.00;;;6.90;;
5285;SDS011;2665;53.112;7.358;2023-06-26T03:13:34;6.80;;;6.20;;
5285;SDS011;2665;53.112;7.358;2023-06-26T03:16:00;7.47;;;6.17;;
5285;SDS011;2665;53.112;7.358;2023-06-26T03:18:26;5.60;;;5.10;;
5285;SDS011;2665;53.112;7.358;2023-06-26T03:20:52;14.23;;;6.27;;
5285;SDS011;2665;53.112;7.358;2023-06-26T03:23:20;6.27;;;5.67;;
5285;SDS011;2665;53.112;7.358;2023-06-26T03:25:45;8.47;;;5.53;;
5285;SDS011;2665;53.112;7.358;2023-06-26T03:28:11;8.37;;;6.40;;
5285;SDS011;2665;53.112;7.358;2023-06-26T03:30:37;6.93;;;6.23;;
5285;SDS011;2665;53.112;7.358;2023-06-26T03:33:02;7.10;;;5.97;;
5285;SDS011;2665;53.112;7.358;2023-06-26T03:35:28;5.77;;;5.17;;
5285;SDS011;2665;53.112;7.358;2023-06-26T03:37:54;10.13;;;5.20;;
5285;SDS011;2665;53.112;7.358;2023-06-26T03:40:19;7.73;;;5.13;;
5285;SDS011;2665;53.112;7.358;2023-06-26T03:42:45;8.00;;;6.30;;
5285;SDS011;2665;53.112;7.358;2023-06-26T03:45:11;7.20;;;5.87;;
5285;SDS011;2665;53.112;7.358;2023-06-26T03:47:36;9.83;;;5.90;;
5285;SDS011;2665;53.112;7.358;2023-06-26T03:50:02;6.27;;;5.37;;
5285;SDS011;2665;53.112;7.358;2023-06-26T03:52:28;6.73;;;5.57;;
5285;SDS011;2665;53.112;7.358;2023-06-26T03:54:55;8.60;;;5.43;;
5285;SDS011;2665;53.112;7.358;2023-06-26T03:57:24;8.10;;;6.43;;
5285;SDS011;2665;53.112;7.358;2023-06-26T03:59:50;6.73;;;6.03;;
5285;SDS011;2665;53.112;7.358;2023-06-26T04:02:16;6.70;;;5.90;;
5285;SDS011;2665;53.112;7.358;2023-06-26T04:04:42;7.17;;;5.00;;
5285;SDS011;2665;53.112;7.358;2023-06-26T04:07:08;7.10;;;5.63;;
5285;SDS011;2665;53.112;7.358;2023-06-26T04:09:34;8.10;;;5.77;;
5285;SDS011;2665;53.112;7.358;2023-06-26T04:11:59;6.10;;;5.50;;
5285;SDS011;2665;53.112;7.358;2023-06-26T04:14:25;6.83;;;5.73;;
5285;SDS011;2665;53.112;7.358;2023-06-26T04:16:50;5.93;;;5.13;;
5285;SDS011;2665;53.112;7.358;2023-06-26T04:19:16;8.73;;;6.03;;
5285;SDS011;2665;53.112;7.358;2023-06-26T04:21:42;6.87;;;5.77;;
5285;SDS011;2665;53.112;7.358;2023-06-26T04:24:07;9.10;;;5.70;;
5285;SDS011;2665;53.112;7.358;2023-06-26T04:26:33;6.63;;;5.43;;
5285;SDS011;2665;53.112;7.358;2023-06-26T04:28:59;8.27;;;5.30;;
5285;SDS011;2665;53.112;7.358;2023-06-26T04:31:25;12.77;;;6.63;;
5285;SDS011;2665;53.112;7.358;2023-06-26T04:33:51;9.10;;;5.80;;
5285;SDS011;2665;53.112;7.358;2023-06-26T04:36:19;9.50;;;6.70;;
5285;SDS011;2665;53.112;7.358;2023-06-26T04:38:45;11.00;;;5.93;;
5285;SDS011;2665;53.112;7.358;2023-06-26T04:41:13;7.17;;;5.70;;
5285;SDS011;2665;53.112;7.358;2023-06-26T04:43:39;10.43;;;5.90;;
5285;SDS011;2665;53.112;7.358;2023-06-26T04:46:05;8.93;;;6.50;;
5285;SDS011;2665;53.112;7.358;2023-06-26T04:48:31;11.13;;;6.90;;
5285;SDS011;2665;53.112;7.358;2023-06-26T04:50:57;9.37;;;7.10;;
5285;SDS011;2665;53.112;7.358;2023-06-26T04:53:24;11.57;;;7.03;;
5285;SDS011;2665;53.112;7.358;2023-06-26T04:55:50;10.13;;;6.97;;
5285;SDS011;2665;53.112;7.358;2023-06-26T04:58:16;9.90;;;7.23;;
5285;SDS011;2665;53.112;7.358;2023-06-26T05:00:42;12.03;;;6.60;;
5285;SDS011;2665;53.112;7.358;2023-06-26T05:03:11;7.57;;;6.40;;
5285;SDS011;2665;53.112;7.358;2023-06-26T05:05:38;7.60;;;6.63;;
5285;SDS011;2665;53.112;7.358;2023-06-26T05:08:14;14.03;;;7.37;;
5285;SDS011;2665;53.112;7.358;2023-06-26T05:10:40;8.00;;;6.80;;
5285;SDS011;2665;53.112;7.358;2023-06-26T05:13:06;8.33;;;6.47;;
5285;SDS011;2665;53.112;7.358;2023-06-26T05:15:32;8.90;;;7.00;;
5285;SDS011;2665;53.112;7.358;2023-06-26T05:17:57;10.23;;;6.17;;
5285;SDS011;2665;53.112;7.358;2023-06-26T05:20:23;8.63;;;7.23;;
5285;SDS011;2665;53.112;7.358;2023-06-26T05:22:49;8.13;;;5.93;;
5285;SDS011;2665;53.112;7.358;2023-06-26T05:25:15;8.43;;;6.67;;
5285;SDS011;2665;53.112;7.358;2023-06-26T05:27:42;8.60;;;6.20;;
5285;SDS011;2665;53.112;7.358;2023-06-26T05:30:08;8.43;;;7.00;;
5285;SDS011;2665;53.112;7.358;2023-06-26T05:32:35;9.37;;;7.80;;
5285;SDS011;2665;53.112;7.358;2023-06-26T05:35:02;12.53;;;6.73;;
5285;SDS011;2665;53.112;7.358;2023-06-26T05:37:30;8.70;;;6.37;;
5285;SDS011;2665;53.112;7.358;2023-06-26T05:39:57;9.97;;;8.00;;
5285;SDS011;2665;53.112;7.358;2023-06-26T05:42:23;8.20;;;7.10;;
5285;SDS011;2665;53.112;7.358;2023-06-26T05:44:48;7.53;;;6.60;;
5285;SDS011;2665;53.112;7.358;2023-06-26T05:47:14;8.00;;;6.27;;
5285;SDS011;2665;53.112;7.358;2023-06-26T05:49:39;9.13;;;6.53;;
5285;SDS011;2665;53.112;7.358;2023-06-26T05:52:05;7.50;;;6.10;;
5285;SDS011;2665;53.112;7.358;2023-06-26T05:54:31;7.53;;;6.67;;
5285;SDS011;2665;53.112;7.358;2023-06-26T05:56:57;15.80;;;6.30;;
5285;SDS011;2665;53.112;7.358;2023-06-26T05:59:24;6.50;;;5.73;;
5285;SDS011;2665;53.112;7.358;2023-06-26T06:01:51;10.00;;;6.30;;
5285;SDS011;2665;53.112;7.358;2023-06-26T06:04:17;10.97;;;6.13;;
5285;SDS011;2665;53.112;7.358;2023-06-26T06:06:43;7.20;;;5.17;;
5285;SDS011;2665;53.112;7.358;2023-06-26T06:09:08;9.00;;;6.23;;
5285;SDS011;2665;53.112;7.358;2023-06-26T06:11:34;6.40;;;4.70;;
5285;SDS011;2665;53.112;7.358;2023-06-26T06:14:00;6.40;;;4.83;;
5285;SDS011;2665;53.112;7.358;2023-06-26T06:16:26;6.67;;;4.60;;
5285;SDS011;2665;53.112;7.358;2023-06-26T06:18:54;7.47;;;4.57;;
5285;SDS011;2665;53.112;7.358;2023-06-26T06:21:20;10.73;;;4.73;;
5285;SDS011;2665;53.112;7.358;2023-06-26T06:23:45;5.60;;;4.40;;
5285;SDS011;2665;53.112;7.358;2023-06-26T06:26:11;9.23;;;5.10;;
5285;SDS011;2665;53.112;7.358;2023-06-26T06:28:37;6.03;;;4.33;;
5285;SDS011;2665;53.112;7.358;2023-06-26T06:31:03;9.23;;;3.83;;
5285;SDS011;2665;53.112;7.358;2023-06-26T06:33:29;15.03;;;4.63;;
5285;SDS011;2665;53.112;7.358;2023-06-26T06:35:55;8.60;;;5.60;;
5285;SDS011;2665;53.112;7.358;2023-06-26T06:38:20;7.97;;;5.30;;
5285;SDS011;2665;53.112;7.358;2023-06-26T06:40:46;7.13;;;4.47;;
5285;SDS011;2665;53.112;7.358;2023-06-26T06:43:11;8.37;;;4.60;;
5285;SDS011;2665;53.112;7.358;2023-06-26T06:45:37;13.00;;;5.40;;
5285;SDS011;2665;53.112;7.358;2023-06-26T06:48:03;5.50;;;4.13;;
5285;SDS011;2665;53.112;7.358;2023-06-26T06:50:29;6.90;;;4.83;;
5285;SDS011;2665;53.112;7.358;2023-06-26T06:52:54;10.17;;;5.27;;
5285;SDS011;2665;53.112;7.358;2023-06-26T06:55:20;9.63;;;5.37;;
5285;SDS011;2665;53.112;7.358;2023-06-26T06:57:46;7.43;;;4.10;;
5285;SDS011;2665;53.112;7.358;2023-06-26T07:00:12;7.50;;;3.83;;
5285;SDS011;2665;53.112;7.358;2023-06-26T07:02:39;4.90;;;3.07;;
5285;SDS011;2665;53.112;7.358;2023-06-26T07:05:07;6.30;;;3.27;;
5285;SDS011;2665;53.112;7.358;2023-06-26T07:07:34;7.37;;;3.23;;
5285;SDS011;2665;53.112;7.358;2023-06-26T07:10:05;7.90;;;3.27;;
5285;SDS011;2665;53.112;7.358;2023-06-26T07:12:33;4.77;;;2.93;;
5285;SDS011;2665;53.112;7.358;2023-06-26T07:15:00;4.87;;;2.90;;
5285;SDS011;2665;53.112;7.358;2023-06-26T07:17:26;4.97;;;3.70;;
5285;SDS011;2665;53.112;7.358;2023-06-26T07:19:52;4.03;;;2.37;;
5285;SDS011;2665;53.112;7.358;2023-06-26T07:22:17;6.73;;;2.87;;
5285;SDS011;2665;53.112;7.358;2023-06-26T07:24:46;4.83;;;2.43;;
5285;SDS011;2665;53.112;7.358;2023-06-26T07:27:13;2.73;;;1.80;;
5285;SDS011;2665;53.112;7.358;2023-06-26T07:29:39;4.63;;;2.33;;
5285;SDS011;2665;53.112;7.358;2023-06-26T07:32:05;4.30;;;2.33;;
5285;SDS011;2665;53.112;7.358;2023-06-26T07:34:31;5.10;;;2.50;;
5285;SDS011;2665;53.112;7.358;2023-06-26T07:36:56;7.43;;;2.73;;
5285;SDS011;2665;53.112;7.358;2023-06-26T07:39:22;4.10;;;1.83;;
5285;SDS011;2665;53.112;7.358;2023-06-26T07:41:47;7.87;;;2.43;;
5285;SDS011;2665;53.112;7.358;2023-06-26T07:44:13;9.90;;;2.07;;
5285;SDS011;2665;53.112;7.358;2023-06-26T07:46:39;6.03;;;1.90;;
5285;SDS011;2665;53.112;7.358;2023-06-26T07:49:04;4.13;;;1.67;;
5285;SDS011;2665;53.112;7.358;2023-06-26T07:51:30;2.97;;;1.50;;
5285;SDS011;2665;53.112;7.358;2023-06-26T07:53:56;4.87;;;2.00;;
5285;SDS011;2665;53.112;7.358;2023-06-26T07:56:21;5.10;;;1.87;;
5285;SDS011;2665;53.112;7.358;2023-06-26T07:58:47;3.80;;;1.60;;
5285;SDS011;2665;53.112;7.358;2023-06-26T08:01:12;6.93;;;1.90;;
5285;SDS011;2665;53.112;7.358;2023-06-26T08:03:38;3.57;;;1.80;;
5285;SDS011;2665;53.112;7.358;2023-06-26T08:06:04;6.50;;;2.10;;
5285;SDS011;2665;53.112;7.358;2023-06-26T08:08:30;6.03;;;1.90;;
5285;SDS011;2665;53.112;7.358;2023-06-26T08:10:56;4.53;;;1.40;;
5285;SDS011;2665;53.112;7.358;2023-06-26T08:13:21;3.70;;;1.40;;
5285;SDS011;2665;53.112;7.358;2023-06-26T08:15:47;3.00;;;1.53;;
5285;SDS011;2665;53.112;7.358;2023-06-26T08:18:13;4.03;;;1.20;;
5285;SDS011;2665;53.112;7.358;2023-06-26T08:20:38;7.80;;;1.87;;
5285;SDS011;2665;53.112;7.358;2023-06-26T08:23:04;3.60;;;1.03;;
5285;SDS011;2665;53.112;7.358;2023-06-26T08:25:29;4.00;;;1.20;;
5285;SDS011;2665;53.112;7.358;2023-06-26T08:27:55;4.37;;;1.60;;
5285;SDS011;2665;53.112;7.358;2023-06-26T08:30:21;2.60;;;1.63;;
5285;SDS011;2665;53.112;7.358;2023-06-26T08:32:47;3.00;;;1.23;;
5285;SDS011;2665;53.112;7.358;2023-06-26T08:35:13;4.43;;;1.27;;
5285;SDS011;2665;53.112;7.358;2023-06-26T08:37:38;2.63;;;1.20;;
5285;SDS011;2665;53.112;7.358;2023-06-26T08:40:04;3.53;;;1.40;;
5285;SDS011;2665;53.112;7.358;2023-06-26T08:42:31;9.10;;;1.57;;
5285;SDS011;2665;53.112;7.358;2023-06-26T08:44:57;2.93;;;1.10;;
5285;SDS011;2665;53.112;7.358;2023-06-26T08:47:22;2.20;;;1.30;;
5285;SDS011;2665;53.112;7.358;2023-06-26T08:52:53;4.70;;;1.63;;
5285;SDS011;2665;53.112;7.358;2023-06-26T08:55:24;3.57;;;0.80;;
5285;SDS011;2665;53.112;7.358;2023-06-26T08:57:52;2.40;;;1.20;;
5285;SDS011;2665;53.112;7.358;2023-06-26T09:00:21;4.90;;;1.23;;
5285;SDS011;2665;53.112;7.358;2023-06-26T09:02:47;2.63;;;1.00;;
5285;SDS011;2665;53.112;7.358;2023-06-26T09:05:13;6.47;;;1.20;;
5285;SDS011;2665;53.112;7.358;2023-06-26T09:07:38;1.90;;;1.20;;
5285;SDS011;2665;53.112;7.358;2023-06-26T09:10:04;4.70;;;1.20;;
5285;SDS011;2665;53.112;7.358;2023-06-26T09:12:30;4.50;;;1.47;;
5285;SDS011;2665;53.112;7.358;2023-06-26T09:14:57;3.10;;;0.80;;
5285;SDS011;2665;53.112;7.358;2023-06-26T09:17:29;1.90;;;0.93;;
5285;SDS011;2665;53.112;7.358;2023-06-26T09:19:56;3.70;;;0.97;;
5285;SDS011;2665;53.112;7.358;2023-06-26T09:22:22;14.43;;;1.20;;
5285;SDS011;2665;53.112;7.358;2023-06-26T09:24:48;4.93;;;1.20;;
5285;SDS011;2665;53.112;7.358;2023-06-26T09:27:15;2.97;;;1.00;;
5285;SDS011;2665;53.112;7.358;2023-06-26T09:29:42;4.87;;;1.27;;
5285;SDS011;2665;53.112;7.358;2023-06-26T09:32:08;5.77;;;1.20;;
5285;SDS011;2665;53.112;7.358;2023-06-26T09:34:34;3.17;;;1.17;;
5285;SDS011;2665;53.112;7.358;2023-06-26T09:37:00;6.43;;;1.50;;
5285;SDS011;2665;53.112;7.358;2023-06-26T09:39:32;4.33;;;1.27;;
5285;SDS011;2665;53.112;7.358;2023-06-26T09:41:58;5.13;;;1.10;;
5285;SDS011;2665;53.112;7.358;2023-06-26T09:44:24;3.07;;;1.63;;
5285;SDS011;2665;53.112;7.358;2023-06-26T09:46:50;4.03;;;1.00;;
5285;SDS011;2665;53.112;7.358;2023-06-26T09:49:18;3.33;;;1.07;;
5285;SDS011;2665;53.112;7.358;2023-06-26T09:51:44;5.30;;;1.23;;
5285;SDS011;2665;53.112;7.358;2023-06-26T09:54:10;2.70;;;0.87;;
5285;SDS011;2665;53.112;7.358;2023-06-26T09:56:37;2.73;;;1.07;;
5285;SDS011;2665;53.112;7.358;2023-06-26T09:59:03;1.90;;;1.20;;
5285;SDS011;2665;53.112;7.358;2023-06-26T10:01:30;2.73;;;0.93;;
5285;SDS011;2665;53.112;7.358;2023-06-26T10:03:57;3.13;;;0.90;;
5285;SDS011;2665;53.112;7.358;2023-06-26T10:08:53;3.23;;;1.10;;
5285;SDS011;2665;53.112;7.358;2023-06-26T10:11:21;2.80;;;1.23;;
5285;SDS011;2665;53.112;7.358;2023-06-26T10:13:47;5.20;;;1.10;;
5285;SDS011;2665;53.112;7.358;2023-06-26T10:16:17;2.20;;;1.37;;
5285;SDS011;2665;53.112;7.358;2023-06-26T10:18:45;3.10;;;1.90;;
5285;SDS011;2665;53.112;7.358;2023-06-26T10:21:12;5.53;;;1.40;;
5285;SDS011;2665;53.112;7.358;2023-06-26T10:23:39;3.53;;;1.23;;
5285;SDS011;2665;53.112;7.358;2023-06-26T10:26:06;3.00;;;1.00;;
5285;SDS011;2665;53.112;7.358;2023-06-26T10:28:32;3.20;;;1.20;;
5285;SDS011;2665;53.112;7.358;2023-06-26T10:30:59;2.63;;;1.40;;
5285;SDS011;2665;53.112;7.358;2023-06-26T10:33:26;3.73;;;1.30;;
5285;SDS011;2665;53.112;7.358;2023-06-26T10:35:52;2.17;;;1.57;;
5285;SDS011;2665;53.112;7.358;2023-06-26T10:38:18;2.87;;;1.07;;
5285;SDS011;2665;53.112;7.358;2023-06-26T10:40:45;3.00;;;1.23;;
5285;SDS011;2665;53.112;7.358;2023-06-26T10:43:13;1.93;;;0.93;;
5285;SDS011;2665;53.112;7.358;2023-06-26T10:45:46;8.00;;;1.40;;
5285;SDS011;2665;53.112;7.358;2023-06-26T10:48:17;2.10;;;1.20;;
5285;SDS011;2665;53.112;7.358;2023-06-26T10:50:43;3.33;;;1.03;;
5285;SDS011;2665;53.112;7.358;2023-06-26T10:53:21;5.73;;;1.10;;
5285;SDS011;2665;53.112;7.358;2023-06-26T10:56:01;2.57;;;1.20;;
5285;SDS011;2665;53.112;7.358;2023-06-26T11:03:39;4.40;;;1.00;;
5285;SDS011;2665;53.112;7.358;2023-06-26T11:06:12;1.93;;;0.93;;
5285;SDS011;2665;53.112;7.358;2023-06-26T11:08:43;3.40;;;1.23;;
5285;SDS011;2665;53.112;7.358;2023-06-26T11:11:10;2.00;;;1.00;;
5285;SDS011;2665;53.112;7.358;2023-06-26T11:13:36;2.40;;;1.40;;
5285;SDS011;2665;53.112;7.358;2023-06-26T11:16:03;2.00;;;1.00;;
5285;SDS011;2665;53.112;7.358;2023-06-26T11:18:31;3.23;;;1.13;;
5285;SDS011;2665;53.112;7.358;2023-06-26T11:23:32;2.17;;;1.20;;
5285;SDS011;2665;53.112;7.358;2023-06-26T11:26:12;2.50;;;1.50;;
5285;SDS011;2665;53.112;7.358;2023-06-26T11:28:38;3.43;;;1.23;;
5285;SDS011;2665;53.112;7.358;2023-06-26T11:31:04;2.00;;;1.30;;
5285;SDS011;2665;53.112;7.358;2023-06-26T11:33:30;2.23;;;1.03;;
5285;SDS011;2665;53.112;7.358;2023-06-26T11:35:55;3.00;;;1.20;;
5285;SDS011;2665;53.112;7.358;2023-06-26T11:38:39;2.70;;;1.30;;
5285;SDS011;2665;53.112;7.358;2023-06-26T11:41:04;3.20;;;1.03;;
5285;SDS011;2665;53.112;7.358;2023-06-26T11:43:33;2.67;;;0.90;;
5285;SDS011;2665;53.112;7.358;2023-06-26T11:45:59;2.97;;;1.20;;
5285;SDS011;2665;53.112;7.358;2023-06-26T11:48:25;2.83;;;1.20;;
5285;SDS011;2665;53.112;7.358;2023-06-26T11:50:51;3.30;;;1.30;;
5285;SDS011;2665;53.112;7.358;2023-06-26T11:53:16;2.23;;;1.30;;
5285;SDS011;2665;53.112;7.358;2023-06-26T11:55:42;2.57;;;1.20;;
5285;SDS011;2665;53.112;7.358;2023-06-26T11:58:08;2.83;;;1.10;;
5285;SDS011;2665;53.112;7.358;2023-06-26T12:00:33;2.33;;;1.03;;
5285;SDS011;2665;53.112;7.358;2023-06-26T12:02:59;2.53;;;0.90;;
5285;SDS011;2665;53.112;7.358;2023-06-26T12:05:26;1.80;;;0.97;;
5285;SDS011;2665;53.112;7.358;2023-06-26T12:07:51;3.53;;;1.07;;
5285;SDS011;2665;53.112;7.358;2023-06-26T12:10:17;2.80;;;1.53;;
5285;SDS011;2665;53.112;7.358;2023-06-26T12:12:45;4.03;;;1.13;;
5285;SDS011;2665;53.112;7.358;2023-06-26T12:15:13;3.20;;;1.37;;
5285;SDS011;2665;53.112;7.358;2023-06-26T12:17:40;2.20;;;1.10;;
5285;SDS011;2665;53.112;7.358;2023-06-26T12:20:06;4.00;;;1.33;;
5285;SDS011;2665;53.112;7.358;2023-06-26T12:22:43;2.53;;;1.40;;
5285;SDS011;2665;53.112;7.358;2023-06-26T12:25:11;2.63;;;0.93;;
5285;SDS011;2665;53.112;7.358;2023-06-26T12:27:37;4.73;;;1.00;;
5285;SDS011;2665;53.112;7.358;2023-06-26T12:30:03;2.17;;;1.00;;
5285;SDS011;2665;53.112;7.358;2023-06-26T12:32:30;6.63;;;1.00;;
5285;SDS011;2665;53.112;7.358;2023-06-26T12:34:56;2.43;;;0.80;;
5285;SDS011;2665;53.112;7.358;2023-06-26T12:37:22;3.13;;;0.90;;
5285;SDS011;2665;53.112;7.358;2023-06-26T12:39:49;2.00;;;0.80;;
5285;SDS011;2665;53.112;7.358;2023-06-26T12:42:18;6.67;;;0.83;;
5285;SDS011;2665;53.112;7.358;2023-06-26T12:44:45;2.43;;;1.00;;
5285;SDS011;2665;53.112;7.358;2023-06-26T12:47:12;1.80;;;0.87;;
5285;SDS011;2665;53.112;7.358;2023-06-26T12:49:40;3.50;;;0.97;;
5285;SDS011;2665;53.112;7.358;2023-06-26T12:52:11;1.60;;;0.63;;
5285;SDS011;2665;53.112;7.358;2023-06-26T12:54:51;3.07;;;1.10;;
5285;SDS011;2665;53.112;7.358;2023-06-26T12:57:18;4.03;;;1.10;;
5285;SDS011;2665;53.112;7.358;2023-06-26T12:59:44;2.37;;;0.80;;
5285;SDS011;2665;53.112;7.358;2023-06-26T13:02:10;2.53;;;1.00;;
5285;SDS011;2665;53.112;7.358;2023-06-26T13:04:36;2.90;;;0.80;;
5285;SDS011;2665;53.112;7.358;2023-06-26T13:07:05;3.80;;;1.00;;
5285;SDS011;2665;53.112;7.358;2023-06-26T13:09:34;1.80;;;0.80;;
5285;SDS011;2665;53.112;7.358;2023-06-26T13:12:00;1.60;;;0.90;;
5285;SDS011;2665;53.112;7.358;2023-06-26T13:14:27;2.30;;;0.90;;
5285;SDS011;2665;53.112;7.358;2023-06-26T13:16:53;2.83;;;1.07;;
5285;SDS011;2665;53.112;7.358;2023-06-26T13:19:18;2.13;;;0.77;;
5285;SDS011;2665;53.112;7.358;2023-06-26T13:21:44;1.50;;;0.70;;
5285;SDS011;2665;53.112;7.358;2023-06-26T13:24:10;1.60;;;0.80;;
5285;SDS011;2665;53.112;7.358;2023-06-26T13:26:36;2.33;;;0.97;;
5285;SDS011;2665;53.112;7.358;2023-06-26T13:29:02;2.23;;;0.97;;
5285;SDS011;2665;53.112;7.358;2023-06-26T13:31:28;3.00;;;0.90;;
5285;SDS011;2665;53.112;7.358;2023-06-26T13:33:56;3.50;;;0.87;;
5285;SDS011;2665;53.112;7.358;2023-06-26T13:36:23;2.60;;;0.73;;
5285;SDS011;2665;53.112;7.358;2023-06-26T13:38:49;1.73;;;0.70;;
5285;SDS011;2665;53.112;7.358;2023-06-26T13:41:20;2.70;;;0.80;;
5285;SDS011;2665;53.112;7.358;2023-06-26T13:43:47;2.53;;;1.40;;
5285;SDS011;2665;53.112;7.358;2023-06-26T13:46:13;2.40;;;1.10;;
5285;SDS011;2665;53.112;7.358;2023-06-26T13:48:38;2.03;;;1.03;;
5285;SDS011;2665;53.112;7.358;2023-06-26T13:51:04;1.90;;;0.80;;
5285;SDS011;2665;53.112;7.358;2023-06-26T13:53:29;3.60;;;1.10;;
5285;SDS011;2665;53.112;7.358;2023-06-26T13:55:55;3.00;;;1.13;;
5285;SDS011;2665;53.112;7.358;2023-06-26T13:58:20;3.60;;;0.87;;
5285;SDS011;2665;53.112;7.358;2023-06-26T14:00:47;2.50;;;0.80;;
5285;SDS011;2665;53.112;7.358;2023-06-26T14:03:13;3.10;;;0.97;;
5285;SDS011;2665;53.112;7.358;2023-06-26T14:05:38;4.17;;;2.07;;
5285;SDS011;2665;53.112;7.358;2023-06-26T14:08:04;1.97;;;0.93;;
5285;SDS011;2665;53.112;7.358;2023-06-26T14:10:32;3.00;;;0.90;;
5285;SDS011;2665;53.112;7.358;2023-06-26T14:13:01;3.57;;;1.10;;
5285;SDS011;2665;53.112;7.358;2023-06-26T14:15:28;1.40;;;0.70;;
5285;SDS011;2665;53.112;7.358;2023-06-26T14:17:53;2.23;;;1.40;;
5285;SDS011;2665;53.112;7.358;2023-06-26T14:20:20;3.80;;;1.20;;
5285;SDS011;2665;53.112;7.358;2023-06-26T14:22:47;2.37;;;0.90;;
5285;SDS011;2665;53.112;7.358;2023-06-26T14:25:13;3.00;;;1.20;;
5285;SDS011;2665;53.112;7.358;2023-06-26T14:27:40;2.03;;;1.27;;
5285;SDS011;2665;53.112;7.358;2023-06-26T14:30:06;1.60;;;0.67;;
5285;SDS011;2665;53.112;7.358;2023-06-26T14:32:32;1.53;;;0.73;;
5285;SDS011;2665;53.112;7.358;2023-06-26T14:34:58;4.20;;;0.80;;
5285;SDS011;2665;53.112;7.358;2023-06-26T14:37:24;5.53;;;1.00;;
5285;SDS011;2665;53.112;7.358;2023-06-26T14:39:51;4.00;;;1.00;;
5285;SDS011;2665;53.112;7.358;2023-06-26T14:42:16;3.33;;;0.87;;
5285;SDS011;2665;53.112;7.358;2023-06-26T14:44:42;3.13;;;1.30;;
5285;SDS011;2665;53.112;7.358;2023-06-26T14:47:08;3.10;;;1.20;;
5285;SDS011;2665;53.112;7.358;2023-06-26T14:49:33;2.90;;;1.00;;
5285;SDS011;2665;53.112;7.358;2023-06-26T14:51:59;2.93;;;1.07;;
5285;SDS011;2665;53.112;7.358;2023-06-26T14:54:24;1.73;;;0.93;;
5285;SDS011;2665;53.112;7.358;2023-06-26T14:56:50;2.43;;;0.93;;
5285;SDS011;2665;53.112;7.358;2023-06-26T14:59:16;5.07;;;1.00;;
5285;SDS011;2665;53.112;7.358;2023-06-26T15:01:41;1.70;;;0.80;;
5285;SDS011;2665;53.112;7.358;2023-06-26T15:04:07;3.00;;;1.37;;
5285;SDS011;2665;53.112;7.358;2023-06-26T15:06:33;4.30;;;1.00;;
5285;SDS011;2665;53.112;7.358;2023-06-26T15:08:59;4.03;;;1.10;;
5285;SDS011;2665;53.112;7.358;2023-06-26T15:11:25;4.40;;;2.93;;
5285;SDS011;2665;53.112;7.358;2023-06-26T15:13:51;2.03;;;0.80;;
5285;SDS011;2665;53.112;7.358;2023-06-26T15:16:17;2.10;;;0.90;;
5285;SDS011;2665;53.112;7.358;2023-06-26T15:18:43;4.20;;;1.23;;
5285;SDS011;2665;53.112;7.358;2023-06-26T15:21:09;2.33;;;1.07;;
5285;SDS011;2665;53.112;7.358;2023-06-26T15:23:34;4.37;;;1.10;;
5285;SDS011;2665;53.112;7.358;2023-06-26T15:26:00;4.33;;;1.47;;
5285;SDS011;2665;53.112;7.358;2023-06-26T15:28:25;2.77;;;1.10;;
5285;SDS011;2665;53.112;7.358;2023-06-26T15:30:51;2.40;;;0.80;;